createdAt,value
2023-03-28T00:01:06.079Z,1.54
2023-03-28T00:03:36.363Z,1.54
2023-03-28T00:06:09.863Z,1.18
2023-03-28T00:08:39.442Z,1.52
2023-03-28T00:11:12.725Z,1.51
2023-03-28T00:13:39.590Z,1.37
2023-03-28T00:16:12.942Z,1.46
2023-03-28T00:18:41.584Z,1.43
2023-03-28T00:21:23.744Z,1.41
2023-03-28T00:23:55.336Z,1.15
2023-03-28T00:26:26.679Z,1.18
2023-03-28T00:29:01.553Z,1.32
2023-03-28T00:31:28.952Z,1.20
2023-03-28T00:33:59.033Z,1.28
2023-03-28T00:36:26.782Z,1.25
2023-03-28T00:38:53.990Z,0.72
2023-03-28T00:41:26.673Z,0.94
2023-03-28T00:43:54.667Z,1.15
2023-03-28T00:46:27.176Z,1.16
2023-03-28T00:49:01.157Z,1.01
2023-03-28T00:51:32.301Z,1.10
2023-03-28T00:54:02.240Z,1.09
2023-03-28T00:56:34.874Z,1.07
2023-03-28T00:59:11.392Z,0.81
2023-03-28T01:01:40.405Z,1.03
2023-03-28T01:04:10.415Z,1.02
2023-03-28T01:06:42.198Z,0.98
2023-03-28T01:09:09.340Z,0.96
2023-03-28T01:11:39.773Z,0.90
2023-03-28T01:14:09.234Z,0.92
2023-03-28T01:16:42.001Z,0.73
2023-03-28T01:19:26.716Z,0.66
2023-03-28T01:22:14.966Z,0.90
2023-03-28T01:25:06.874Z,0.90
2023-03-28T01:28:24.284Z,0.82
2023-03-28T01:31:00.034Z,0.82
2023-03-28T01:33:43.740Z,0.82
2023-03-28T01:36:47.101Z,0.77
2023-03-28T01:39:23.379Z,0.69
2023-03-28T01:41:56.420Z,0.72
2023-03-28T01:44:41.938Z,0.69
2023-03-28T01:47:30.333Z,0.62
2023-03-28T01:50:10.393Z,0.65
2023-03-28T01:52:57.706Z,0.63
2023-03-28T01:55:33.067Z,0.50
2023-03-28T01:58:23.553Z,0.52
2023-03-28T02:00:56.581Z,0.50
2023-03-28T02:03:37.834Z,0.54
2023-03-28T02:06:08.473Z,0.46
2023-03-28T02:08:42.223Z,-0.16
2023-03-28T02:11:10.702Z,0.39
2023-03-28T02:13:45.110Z,0.43
2023-03-28T02:16:15.095Z,0.38
2023-03-28T02:18:47.775Z,-0.10
2023-03-28T02:21:19.508Z,0.39
2023-03-28T02:23:52.323Z,0.36
2023-03-28T02:26:20.388Z,0.32
2023-03-28T02:28:50.759Z,0.14
2023-03-28T02:31:17.772Z,0.21
2023-03-28T02:33:49.649Z,0.29
2023-03-28T02:36:47.417Z,-0.17
2023-03-28T02:39:43.674Z,0.25
2023-03-28T02:42:25.539Z,0.21
2023-03-28T02:45:22.873Z,0.27
2023-03-28T02:48:18.753Z,0.22
2023-03-28T02:50:58.753Z,0.24
2023-03-28T02:53:33.058Z,0.23
2023-03-28T02:56:09.253Z,0.20
2023-03-28T02:58:44.837Z,0.20
2023-03-28T03:01:14.742Z,0.14
2023-03-28T03:03:43.814Z,0.13
2023-03-28T03:06:13.036Z,0.08
2023-03-28T03:08:39.827Z,0.06
2023-03-28T03:11:06.840Z,0.01
2023-03-28T03:13:33.468Z,-0.02
2023-03-28T03:16:00.392Z,0.00
2023-03-28T03:18:29.388Z,0.00
2023-03-28T03:20:56.090Z,0.00
2023-03-28T03:23:22.694Z,-0.02
2023-03-28T03:25:50.767Z,-0.03
2023-03-28T03:28:19.666Z,-0.02
2023-03-28T03:30:48.666Z,-0.21
2023-03-28T03:33:16.758Z,-0.23
2023-03-28T03:35:46.039Z,0.05
2023-03-28T03:38:13.294Z,-0.07
2023-03-28T03:40:40.732Z,-0.69
2023-03-28T03:43:07.376Z,0.14
2023-03-28T03:45:33.972Z,-0.10
2023-03-28T03:48:00.827Z,0.04
2023-03-28T03:50:29.999Z,-0.08
2023-03-28T03:52:57.850Z,0.02
2023-03-28T03:55:26.675Z,0.03
2023-03-28T03:57:53.473Z,0.10
2023-03-28T04:00:22.699Z,0.05
2023-03-28T04:02:49.280Z,0.09
2023-03-28T04:05:16.365Z,-0.27
2023-03-28T04:07:43.181Z,0.09
2023-03-28T04:13:52.984Z,-0.08
2023-03-28T04:16:20.936Z,-0.08
2023-03-28T04:18:52.936Z,-0.23
2023-03-28T04:21:27.609Z,-0.11
2023-03-28T04:23:55.363Z,-0.11
2023-03-28T04:26:26.098Z,-0.26
2023-03-28T04:28:53.345Z,-0.16
2023-03-28T04:31:21.799Z,-0.70
2023-03-28T04:33:49.242Z,-0.17
2023-03-28T04:36:18.929Z,-0.19
2023-03-28T04:38:48.282Z,-0.22
2023-03-28T04:41:18.071Z,-0.24
2023-03-28T04:43:47.737Z,-0.53
2023-03-28T04:46:14.337Z,-0.20
2023-03-28T04:48:41.009Z,-0.16
2023-03-28T04:51:08.048Z,-0.34
2023-03-28T04:53:34.738Z,-0.33
2023-03-28T04:56:03.432Z,-0.22
2023-03-28T04:58:32.526Z,-0.35
2023-03-28T05:01:03.791Z,-0.26
2023-03-28T05:03:30.640Z,-0.33
2023-03-28T05:05:57.350Z,-0.35
2023-03-28T05:08:27.824Z,-0.32
2023-03-28T05:10:55.333Z,-0.51
2023-03-28T05:13:25.518Z,-0.31
2023-03-28T05:15:52.121Z,-0.45
2023-03-28T05:18:21.805Z,-0.28
2023-03-28T05:20:48.361Z,-0.85
2023-03-28T05:23:15.031Z,-0.22
2023-03-28T05:25:41.750Z,-0.24
2023-03-28T05:28:08.365Z,-0.10
2023-03-28T05:30:35.391Z,-0.21
2023-03-28T05:33:02.038Z,-0.14
2023-03-28T05:35:31.199Z,0.02
2023-03-28T05:38:03.020Z,-0.01
2023-03-28T05:40:34.348Z,-0.18
2023-03-28T05:43:01.035Z,-0.01
2023-03-28T05:45:27.656Z,0.13
2023-03-28T05:47:55.678Z,0.17
2023-03-28T05:50:23.180Z,0.10
2023-03-28T05:52:49.811Z,0.30
2023-03-28T05:55:16.438Z,0.25
2023-03-28T05:57:47.498Z,0.36
2023-03-28T06:00:15.193Z,0.42
2023-03-28T06:02:43.298Z,0.36
2023-03-28T06:05:13.890Z,0.59
2023-03-28T06:07:42.905Z,0.77
2023-03-28T06:10:11.593Z,1.70
2023-03-28T06:12:38.236Z,2.13
2023-03-28T06:15:05.982Z,2.82
2023-03-28T06:17:32.722Z,3.25
2023-03-28T06:20:05.965Z,3.50
2023-03-28T06:22:32.973Z,3.52
2023-03-28T06:25:02.010Z,3.15
2023-03-28T06:27:28.649Z,2.86
2023-03-28T06:29:55.448Z,2.66
2023-03-28T06:32:22.439Z,2.76
2023-03-28T06:34:51.366Z,2.55
2023-03-28T06:37:18.071Z,2.74
2023-03-28T06:39:44.739Z,2.82
2023-03-28T06:42:11.493Z,2.86
2023-03-28T06:44:40.814Z,2.88
2023-03-28T06:47:09.928Z,2.89
2023-03-28T06:49:36.551Z,2.92
2023-03-28T06:52:03.420Z,2.81
2023-03-28T06:54:29.987Z,3.00
2023-03-28T06:56:56.564Z,3.06
2023-03-28T06:59:23.237Z,2.81
2023-03-28T07:01:49.916Z,2.97
2023-03-28T07:04:16.610Z,3.19
2023-03-28T07:06:43.210Z,3.11
2023-03-28T07:09:10.968Z,3.33
2023-03-28T07:11:37.854Z,3.41
2023-03-28T07:14:04.502Z,3.41
2023-03-28T07:16:31.252Z,3.45
2023-03-28T07:18:58.080Z,3.33
2023-03-28T07:21:26.946Z,3.71
2023-03-28T07:23:53.541Z,3.77
2023-03-28T07:26:22.427Z,3.99
2023-03-28T07:28:54.136Z,4.03
2023-03-28T07:31:21.397Z,4.29
2023-03-28T07:33:51.336Z,4.36
2023-03-28T07:36:23.160Z,4.49
2023-03-28T07:38:50.300Z,4.62
2023-03-28T07:41:17.468Z,4.71
2023-03-28T07:43:46.825Z,4.86
2023-03-28T07:46:15.258Z,4.68
2023-03-28T07:48:42.930Z,5.14
2023-03-28T07:51:10.808Z,4.78
2023-03-28T07:53:38.210Z,5.37
2023-03-28T07:56:12.474Z,5.63
2023-03-28T07:58:41.033Z,6.97
2023-03-28T08:01:11.082Z,9.04
2023-03-28T08:03:37.849Z,10.03
2023-03-28T08:06:13.775Z,10.44
2023-03-28T08:08:47.154Z,11.27
2023-03-28T08:11:13.841Z,10.94
2023-03-28T08:13:42.705Z,11.60
2023-03-28T08:16:09.991Z,12.23
2023-03-28T08:18:36.639Z,11.88
2023-03-28T08:21:03.801Z,12.02
2023-03-28T08:23:30.768Z,11.62
2023-03-28T08:26:06.314Z,11.44
2023-03-28T08:28:35.211Z,11.18
2023-03-28T08:31:02.726Z,10.86
2023-03-28T08:33:34.555Z,10.73
2023-03-28T08:36:01.226Z,11.05
2023-03-28T08:38:30.528Z,12.01
2023-03-28T08:41:09.154Z,12.70
2023-03-28T08:43:54.178Z,13.30
2023-03-28T08:46:26.591Z,13.00
2023-03-28T08:48:54.723Z,13.30
2023-03-28T08:51:26.764Z,13.28
2023-03-28T08:54:08.202Z,13.03
2023-03-28T08:56:45.769Z,12.89
2023-03-28T08:59:16.716Z,12.64
2023-03-28T09:01:47.232Z,12.31
2023-03-28T09:04:35.424Z,11.95
2023-03-28T09:07:26.578Z,11.68
2023-03-28T09:10:04.932Z,11.48
2023-03-28T09:12:31.509Z,11.13
2023-03-28T09:15:25.037Z,10.81
2023-03-28T09:18:22.609Z,10.45
2023-03-28T09:20:54.627Z,10.25
2023-03-28T09:23:29.934Z,10.10
2023-03-28T09:26:14.892Z,9.30
2023-03-28T09:29:00.350Z,10.06
2023-03-28T09:31:33.163Z,10.11
2023-03-28T09:34:00.717Z,10.04
2023-03-28T09:36:41.256Z,10.24
2023-03-28T09:39:26.064Z,9.98
2023-03-28T09:42:15.530Z,10.03
2023-03-28T09:44:54.245Z,9.88
2023-03-28T09:47:26.643Z,10.06
2023-03-28T09:50:02.185Z,10.01
2023-03-28T09:52:39.391Z,10.18
2023-03-28T09:55:20.199Z,10.25
2023-03-28T09:58:12.965Z,10.31
2023-03-28T10:00:49.273Z,9.60
2023-03-28T10:03:29.450Z,10.31
2023-03-28T10:05:59.887Z,9.52
2023-03-28T10:08:38.936Z,10.42
2023-03-28T10:11:19.561Z,10.52
2023-03-28T10:13:50.754Z,10.59
2023-03-28T10:16:32.402Z,10.65
2023-03-28T10:19:01.598Z,10.79
2023-03-28T10:21:34.151Z,10.42
2023-03-28T10:24:08.911Z,10.96
2023-03-28T10:26:40.741Z,11.01
2023-03-28T10:29:13.849Z,11.09
2023-03-28T10:31:47.986Z,11.16
2023-03-28T10:34:30.008Z,11.20
2023-03-28T10:36:56.752Z,11.22
2023-03-28T10:39:29.444Z,11.29
2023-03-28T10:42:01.133Z,11.27
2023-03-28T10:44:35.953Z,11.37
2023-03-28T10:47:12.117Z,11.30
2023-03-28T10:49:53.786Z,11.38
2023-03-28T10:52:48.661Z,11.39
2023-03-28T10:55:38.253Z,11.49
2023-03-28T10:58:22.087Z,11.76
2023-03-28T11:00:54.586Z,11.99
2023-03-28T11:03:21.995Z,11.93
2023-03-28T11:06:08.786Z,11.85
2023-03-28T11:09:06.735Z,11.92
2023-03-28T11:11:41.522Z,11.84
2023-03-28T11:14:26.969Z,11.66
2023-03-28T11:17:01.454Z,11.78
2023-03-28T11:19:42.988Z,11.75
2023-03-28T11:22:34.484Z,11.92
2023-03-28T11:25:21.882Z,11.85
2023-03-28T11:28:01.409Z,11.93
2023-03-28T11:30:33.186Z,11.77
2023-03-28T11:33:15.408Z,11.48
2023-03-28T11:35:53.409Z,10.41
2023-03-28T11:38:55.915Z,11.90
2023-03-28T11:41:29.455Z,11.90
2023-03-28T11:44:09.673Z,11.86
2023-03-28T11:46:42.732Z,11.66
2023-03-28T11:49:32.072Z,12.00
2023-03-28T11:52:01.531Z,12.21
2023-03-28T11:54:39.622Z,12.34
2023-03-28T11:57:29.067Z,12.71
2023-03-28T12:00:00.654Z,12.61
2023-03-28T12:02:27.313Z,12.86
2023-03-28T12:05:07.679Z,13.05
2023-03-28T12:07:48.351Z,13.06
2023-03-28T12:10:19.485Z,13.05
2023-03-28T12:13:21.240Z,13.30
2023-03-28T12:15:52.781Z,13.23
2023-03-28T12:18:33.652Z,13.28
2023-03-28T12:21:33.577Z,13.00
2023-03-28T12:24:11.355Z,13.24
2023-03-28T12:27:07.796Z,13.23
2023-03-28T12:30:06.876Z,13.05
2023-03-28T12:32:43.308Z,13.17
2023-03-28T12:35:51.187Z,13.21
2023-03-28T12:39:00.656Z,13.16
2023-03-28T12:41:31.910Z,13.02
2023-03-28T12:44:06.357Z,13.23
2023-03-28T12:46:53.259Z,13.39
2023-03-28T12:49:26.423Z,13.61
2023-03-28T12:51:56.753Z,13.37
2023-03-28T12:54:27.149Z,14.12
2023-03-28T12:57:07.246Z,14.17
2023-03-28T12:59:40.635Z,13.94
2023-03-28T13:02:15.813Z,13.82
2023-03-28T13:05:00.362Z,13.74
2023-03-28T13:07:37.380Z,13.68
2023-03-28T13:10:07.652Z,13.70
2023-03-28T13:12:37.206Z,13.53
2023-03-28T13:15:26.150Z,13.56
2023-03-28T13:18:17.992Z,13.53
2023-03-28T13:20:48.653Z,13.59
2023-03-28T13:23:17.740Z,13.64
2023-03-28T13:25:54.594Z,13.65
2023-03-28T13:28:29.815Z,13.90
2023-03-28T13:31:12.221Z,14.10
2023-03-28T13:34:01.734Z,14.12
2023-03-28T13:36:29.802Z,14.18
2023-03-28T13:39:18.863Z,14.02
2023-03-28T13:41:45.365Z,13.95
2023-03-28T13:44:16.331Z,13.75
2023-03-28T13:46:45.619Z,13.64
2023-03-28T13:49:12.314Z,13.65
2023-03-28T13:51:38.810Z,13.55
2023-03-28T13:54:05.735Z,13.40
2023-03-28T13:56:36.413Z,13.14
2023-03-28T13:59:14.455Z,12.93
2023-03-28T14:01:55.358Z,12.67
2023-03-28T14:04:25.317Z,12.43
2023-03-28T14:06:55.349Z,12.54
2023-03-28T14:09:33.968Z,12.66
2023-03-28T14:12:12.189Z,12.62
2023-03-28T14:14:44.394Z,12.60
2023-03-28T14:17:15.352Z,12.35
2023-03-28T14:19:51.179Z,12.52
2023-03-28T14:22:21.240Z,12.60
2023-03-28T14:24:51.727Z,12.56
2023-03-28T14:27:45.448Z,12.63
2023-03-28T14:30:25.087Z,12.65
2023-03-28T14:32:59.240Z,12.62
2023-03-28T14:35:38.810Z,12.50
2023-03-28T14:38:11.395Z,12.50
2023-03-28T14:40:42.227Z,12.33
2023-03-28T14:43:16.161Z,12.28
2023-03-28T14:45:48.888Z,12.15
2023-03-28T14:48:19.750Z,12.18
2023-03-28T14:50:49.211Z,12.38
2023-03-28T14:53:21.405Z,12.56
2023-03-28T14:55:54.527Z,12.56
2023-03-28T14:58:22.768Z,12.26
2023-03-28T15:00:54.398Z,12.56
2023-03-28T15:03:43.152Z,12.66
2023-03-28T15:06:18.644Z,12.52
2023-03-28T15:08:45.917Z,12.46
2023-03-28T15:11:20.561Z,12.41
2023-03-28T15:13:50.426Z,12.35
2023-03-28T15:16:21.384Z,12.37
2023-03-28T15:18:57.375Z,12.30
2023-03-28T15:21:24.528Z,11.55
2023-03-28T15:23:59.527Z,12.31
2023-03-28T15:26:55.328Z,12.43
2023-03-28T15:29:25.116Z,12.56
2023-03-28T15:32:04.555Z,12.65
2023-03-28T15:34:33.944Z,12.62
2023-03-28T15:37:02.953Z,12.48
2023-03-28T15:39:34.915Z,12.21
2023-03-28T15:42:21.433Z,12.65
2023-03-28T15:44:57.148Z,12.57
2023-03-28T15:47:35.570Z,12.52
2023-03-28T15:50:24.433Z,12.54
2023-03-28T15:53:00.186Z,12.53
2023-03-28T15:55:33.020Z,12.46
2023-03-28T15:58:00.038Z,12.31
2023-03-28T16:00:58.704Z,12.33
2023-03-28T16:03:25.255Z,12.21
2023-03-28T16:06:10.259Z,12.13
2023-03-28T16:08:48.442Z,12.02
2023-03-28T16:11:21.744Z,11.93
2023-03-28T16:13:48.344Z,11.73
2023-03-28T16:16:24.676Z,11.80
2023-03-28T16:18:54.501Z,11.66
2023-03-28T16:21:21.232Z,11.61
2023-03-28T16:23:48.153Z,10.56
2023-03-28T16:26:17.152Z,11.08
2023-03-28T16:28:43.704Z,11.43
2023-03-28T16:31:15.055Z,11.43
2023-03-28T16:33:49.378Z,11.34
2023-03-28T16:36:16.292Z,11.31
2023-03-28T16:38:42.948Z,11.29
2023-03-28T16:41:12.501Z,11.19
2023-03-28T16:43:40.229Z,11.13
2023-03-28T16:46:12.365Z,11.05
2023-03-28T16:48:41.860Z,11.01
2023-03-28T16:51:08.689Z,10.92
2023-03-28T16:53:36.928Z,10.90
2023-03-28T16:56:05.161Z,10.83
2023-03-28T16:58:31.761Z,10.82
2023-03-28T17:01:07.101Z,10.74
2023-03-28T17:03:34.133Z,10.72
2023-03-28T17:06:05.893Z,10.45
2023-03-28T17:08:32.438Z,10.46
2023-03-28T17:11:00.298Z,10.57
2023-03-28T17:13:28.078Z,10.35
2023-03-28T17:15:56.368Z,10.38
2023-03-28T17:18:27.679Z,10.09
2023-03-28T17:21:03.467Z,10.19
2023-03-28T17:23:33.290Z,10.08
2023-03-28T17:26:00.740Z,9.96
2023-03-28T17:28:29.229Z,9.82
2023-03-28T17:30:58.557Z,9.92
2023-03-28T17:33:25.758Z,9.87
2023-03-28T17:35:52.408Z,9.68
2023-03-28T17:38:18.984Z,9.71
2023-03-28T17:40:47.267Z,9.76
2023-03-28T17:43:13.919Z,9.72
2023-03-28T17:45:40.509Z,9.55
2023-03-28T17:48:07.831Z,9.59
2023-03-28T17:50:34.389Z,9.50
2023-03-28T17:53:03.224Z,9.61
2023-03-28T17:55:30.053Z,9.55
2023-03-28T17:57:56.775Z,9.48
2023-03-28T18:00:23.361Z,9.42
2023-03-28T18:02:53.125Z,9.33
2023-03-28T18:05:22.322Z,9.29
2023-03-28T18:07:52.032Z,9.26
2023-03-28T18:10:23.660Z,8.78
2023-03-28T18:12:51.541Z,9.12
2023-03-28T18:15:18.211Z,9.07
2023-03-28T18:17:45.360Z,9.05
2023-03-28T18:20:12.741Z,9.02
2023-03-28T18:22:39.584Z,8.93
2023-03-28T18:25:06.811Z,8.95
2023-03-28T18:27:33.461Z,8.86
2023-03-28T18:30:06.513Z,8.91
2023-03-28T18:32:35.353Z,8.89
2023-03-28T18:35:02.290Z,8.87
2023-03-28T18:37:32.796Z,8.90
2023-03-28T18:40:00.282Z,8.89
2023-03-28T18:42:27.230Z,8.90
2023-03-28T18:44:53.851Z,8.86
2023-03-28T18:47:20.489Z,8.76
2023-03-28T18:49:47.031Z,8.68
2023-03-28T18:52:19.430Z,8.70
2023-03-28T18:54:46.762Z,8.35
2023-03-28T18:57:16.078Z,8.66
2023-03-28T18:59:42.691Z,8.61
2023-03-28T19:02:13.771Z,8.60
2023-03-28T19:04:42.694Z,8.54
2023-03-28T19:07:10.042Z,8.55
2023-03-28T19:09:36.890Z,8.54
2023-03-28T19:12:03.989Z,8.52
2023-03-28T19:14:33.166Z,8.58
2023-03-28T19:17:02.534Z,8.51
2023-03-28T19:19:29.237Z,8.44
2023-03-28T19:21:56.133Z,8.42
2023-03-28T19:24:23.475Z,8.36
2023-03-28T19:26:50.328Z,8.26
2023-03-28T19:29:17.258Z,8.20
2023-03-28T19:31:43.969Z,8.26
2023-03-28T19:34:19.632Z,8.26
2023-03-28T19:36:46.369Z,8.21
2023-03-28T19:39:13.471Z,8.16
2023-03-28T19:41:40.575Z,7.97
2023-03-28T19:44:09.495Z,8.09
2023-03-28T19:46:38.782Z,7.65
2023-03-28T19:49:11.423Z,7.81
2023-03-28T19:51:40.377Z,7.95
2023-03-28T19:54:07.170Z,7.86
2023-03-28T19:56:34.019Z,7.69
2023-03-28T19:59:00.648Z,7.84
2023-03-28T20:01:27.570Z,7.77
2023-03-28T20:03:54.222Z,7.75
2023-03-28T20:06:24.576Z,7.73
2023-03-28T20:08:53.604Z,7.53
2023-03-28T20:11:20.560Z,7.66
2023-03-28T20:13:47.218Z,7.53
2023-03-28T20:16:14.683Z,7.63
2023-03-28T20:18:41.871Z,7.61
2023-03-28T20:21:11.762Z,7.60
2023-03-28T20:23:41.205Z,7.49
2023-03-28T20:26:15.475Z,7.55
2023-03-28T20:28:42.240Z,7.41
2023-03-28T20:31:12.839Z,7.44
2023-03-28T20:33:40.826Z,7.42
2023-03-28T20:36:07.995Z,7.49
2023-03-28T20:38:34.712Z,7.43
2023-03-28T20:41:01.924Z,7.40
2023-03-28T20:43:29.589Z,7.34
2023-03-28T20:46:01.636Z,7.38
2023-03-28T20:48:36.030Z,7.36
2023-03-28T20:51:14.344Z,7.32
2023-03-28T20:53:44.885Z,7.30
2023-03-28T20:56:13.571Z,7.25
2023-03-28T20:58:44.174Z,7.03
2023-03-28T21:01:17.670Z,7.18
2023-03-28T21:03:51.106Z,7.16
2023-03-28T21:06:21.427Z,7.09
2023-03-28T21:08:50.266Z,6.66
2023-03-28T21:11:26.389Z,6.98
2023-03-28T21:13:53.647Z,6.94
2023-03-28T21:16:21.590Z,6.93
2023-03-28T21:18:48.797Z,6.88
2023-03-28T21:21:17.578Z,6.88
2023-03-28T21:23:47.734Z,6.85
2023-03-28T21:26:17.389Z,6.91
2023-03-28T21:28:45.031Z,6.76
2023-03-28T21:31:15.489Z,6.95
2023-03-28T21:33:45.776Z,6.94
2023-03-28T21:36:17.177Z,6.97
2023-03-28T21:38:44.836Z,6.99
2023-03-28T21:41:14.447Z,6.59
2023-03-28T21:43:44.502Z,7.00
2023-03-28T21:46:12.757Z,6.52
2023-03-28T21:48:44.788Z,7.01
2023-03-28T21:51:15.559Z,6.80
2023-03-28T21:53:42.415Z,7.02
2023-03-28T21:56:11.579Z,6.98
2023-03-28T21:58:38.373Z,6.42
2023-03-28T22:01:08.298Z,6.62
2023-03-28T22:03:38.430Z,6.54
2023-03-28T22:06:07.860Z,7.01
2023-03-28T22:08:34.463Z,6.97
2023-03-28T22:11:05.088Z,6.91
2023-03-28T22:13:32.022Z,7.01
2023-03-28T22:16:02.531Z,7.00
2023-03-28T22:18:30.785Z,6.95
2023-03-28T22:21:02.624Z,6.99
2023-03-28T22:23:30.138Z,7.01
2023-03-28T22:25:58.533Z,6.53
2023-03-28T22:28:27.339Z,6.98
2023-03-28T22:30:55.194Z,7.01
2023-03-28T22:33:25.470Z,7.01
2023-03-28T22:35:53.100Z,7.01
2023-03-28T22:38:19.974Z,7.01
2023-03-28T22:40:47.613Z,7.00
2023-03-28T22:43:15.004Z,6.95
2023-03-28T22:45:41.835Z,6.15
2023-03-28T22:48:20.346Z,6.98
2023-03-28T22:50:47.376Z,6.97
2023-03-28T22:53:15.380Z,6.95
2023-03-28T22:55:44.608Z,6.95
2023-03-28T22:58:11.974Z,6.86
2023-03-28T23:00:39.253Z,6.97
2023-03-28T23:03:07.998Z,6.96
2023-03-28T23:05:37.932Z,6.90
2023-03-28T23:08:05.608Z,6.77
2023-03-28T23:10:32.335Z,6.97
2023-03-28T23:12:59.561Z,6.92
2023-03-28T23:15:26.897Z,6.96
2023-03-28T23:17:53.644Z,6.92
2023-03-28T23:20:26.595Z,6.97
2023-03-28T23:22:55.559Z,6.98
2023-03-28T23:25:22.440Z,6.98
2023-03-28T23:27:49.082Z,6.87
2023-03-28T23:30:16.643Z,6.78
2023-03-28T23:32:45.796Z,7.00
2023-03-28T23:35:12.332Z,6.89
2023-03-28T23:37:41.741Z,6.48
2023-03-28T23:40:15.068Z,6.93
2023-03-28T23:42:47.004Z,6.87
2023-03-28T23:45:15.152Z,6.92
2023-03-28T23:47:43.446Z,6.93
2023-03-28T23:50:13.829Z,6.84
2023-03-28T23:52:42.801Z,6.78
2023-03-28T23:55:09.933Z,6.84
2023-03-28T23:57:36.959Z,6.91
